createdAt,value
2022-10-09T00:00:42.110Z,9.07
2022-10-09T00:03:09.607Z,9.80
2022-10-09T00:05:37.161Z,9.03
2022-10-09T00:08:04.702Z,12.37
2022-10-09T00:10:32.146Z,12.77
2022-10-09T00:12:59.606Z,7.17
2022-10-09T00:15:27.023Z,15.93
2022-10-09T00:17:54.690Z,7.87
2022-10-09T00:20:22.121Z,9.07
2022-10-09T00:22:50.000Z,47.47
2022-10-09T00:25:17.765Z,27.30
2022-10-09T00:27:45.335Z,19.37
2022-10-09T00:30:12.950Z,13.40
2022-10-09T00:32:40.480Z,9.40
2022-10-09T00:35:08.171Z,18.90
2022-10-09T00:37:35.663Z,8.30
2022-10-09T00:40:03.269Z,9.37
2022-10-09T00:42:30.840Z,10.53
2022-10-09T00:44:59.852Z,9.20
2022-10-09T00:47:27.325Z,12.50
2022-10-09T00:49:57.396Z,11.40
2022-10-09T00:52:26.306Z,10.83
2022-10-09T00:54:54.440Z,13.43
2022-10-09T00:57:22.785Z,10.40
2022-10-09T00:59:50.515Z,7.50
2022-10-09T01:02:18.379Z,10.20
2022-10-09T01:04:45.869Z,10.30
2022-10-09T01:07:32.408Z,11.20
2022-10-09T01:10:08.223Z,10.10
2022-10-09T01:13:11.674Z,12.33
2022-10-09T01:15:43.519Z,8.57
2022-10-09T01:18:21.210Z,9.13
2022-10-09T01:20:52.035Z,9.90
2022-10-09T01:23:38.149Z,8.00
2022-10-09T01:26:05.608Z,10.03
2022-10-09T01:28:33.542Z,11.37
2022-10-09T01:31:03.760Z,9.97
2022-10-09T01:33:33.273Z,11.10
2022-10-09T01:36:01.422Z,8.37
2022-10-09T01:38:29.619Z,11.93
2022-10-09T01:40:57.319Z,11.43
2022-10-09T01:43:24.771Z,9.07
2022-10-09T01:45:52.451Z,11.00
2022-10-09T01:48:25.191Z,7.77
2022-10-09T01:50:58.586Z,8.57
2022-10-09T01:53:26.832Z,18.47
2022-10-09T01:56:00.363Z,9.67
2022-10-09T01:58:36.794Z,7.37
2022-10-09T02:01:18.626Z,9.70
2022-10-09T02:03:47.525Z,12.73
2022-10-09T02:06:16.206Z,13.03
2022-10-09T02:08:45.006Z,10.63
2022-10-09T02:11:13.915Z,9.97
2022-10-09T02:13:41.759Z,10.97
2022-10-09T02:16:18.467Z,10.73
2022-10-09T02:18:47.903Z,8.77
2022-10-09T02:21:27.783Z,14.07
2022-10-09T02:23:55.675Z,9.43
2022-10-09T02:26:23.536Z,8.60
2022-10-09T02:28:51.611Z,14.20
2022-10-09T02:31:29.707Z,14.07
2022-10-09T02:33:58.446Z,9.27
2022-10-09T02:36:26.663Z,8.43
2022-10-09T02:38:55.183Z,10.33
2022-10-09T02:41:23.203Z,9.43
2022-10-09T02:43:50.943Z,11.20
2022-10-09T02:46:18.773Z,11.23
2022-10-09T02:48:46.480Z,11.53
2022-10-09T02:51:14.044Z,7.57
2022-10-09T02:53:41.474Z,12.13
2022-10-09T02:56:09.088Z,13.50
2022-10-09T02:58:36.771Z,10.50
2022-10-09T03:01:04.627Z,17.47
2022-10-09T03:03:32.574Z,10.27
2022-10-09T03:06:10.539Z,11.93
2022-10-09T03:08:39.070Z,10.80
2022-10-09T03:11:06.740Z,18.20
2022-10-09T03:13:34.675Z,9.97
2022-10-09T03:16:09.334Z,7.47
2022-10-09T03:18:37.404Z,12.53
2022-10-09T03:21:08.611Z,10.93
2022-10-09T03:23:36.636Z,13.00
2022-10-09T03:26:08.648Z,10.20
2022-10-09T03:28:37.355Z,10.07
2022-10-09T03:31:05.185Z,6.30
2022-10-09T03:33:33.211Z,8.80
2022-10-09T03:36:00.664Z,8.47
2022-10-09T03:38:28.190Z,8.17
2022-10-09T03:40:55.752Z,13.40
2022-10-09T03:43:23.292Z,8.93
2022-10-09T03:45:50.768Z,10.27
2022-10-09T03:48:18.423Z,10.93
2022-10-09T03:50:46.010Z,11.07
2022-10-09T03:53:13.990Z,12.77
2022-10-09T03:55:41.963Z,12.23
2022-10-09T03:58:09.909Z,13.03
2022-10-09T04:00:37.480Z,14.67
2022-10-09T04:03:05.098Z,13.23
2022-10-09T04:05:35.493Z,12.63
2022-10-09T04:08:02.975Z,17.50
2022-10-09T04:10:30.524Z,13.57
2022-10-09T04:12:58.019Z,14.30
2022-10-09T04:15:25.493Z,16.53
2022-10-09T04:17:52.924Z,19.47
2022-10-09T04:20:20.424Z,15.30
2022-10-09T04:22:48.108Z,11.83
2022-10-09T04:25:15.827Z,18.13
2022-10-09T04:27:43.308Z,12.43
2022-10-09T04:30:10.925Z,13.77
2022-10-09T04:32:38.535Z,18.77
2022-10-09T04:35:06.127Z,12.17
2022-10-09T04:37:33.635Z,12.73
2022-10-09T04:40:01.063Z,12.03
2022-10-09T04:42:28.647Z,12.90
2022-10-09T04:44:56.074Z,11.90
2022-10-09T04:47:23.619Z,15.53
2022-10-09T04:49:51.039Z,28.87
2022-10-09T04:52:18.528Z,13.80
2022-10-09T04:54:45.953Z,13.60
2022-10-09T04:57:13.415Z,15.47
2022-10-09T04:59:40.928Z,12.23
2022-10-09T05:02:08.435Z,15.20
2022-10-09T05:04:35.936Z,16.13
2022-10-09T05:07:03.421Z,15.27
2022-10-09T05:09:30.967Z,13.40
2022-10-09T05:11:58.474Z,26.80
2022-10-09T05:14:26.039Z,24.67
2022-10-09T05:17:13.137Z,21.20
2022-10-09T05:19:41.080Z,22.47
2022-10-09T05:22:08.921Z,22.53
2022-10-09T05:24:36.671Z,30.50
2022-10-09T05:27:04.458Z,36.33
2022-10-09T05:29:32.168Z,26.63
2022-10-09T05:31:59.676Z,32.80
2022-10-09T05:34:27.186Z,29.87
2022-10-09T05:36:54.667Z,23.77
2022-10-09T05:39:22.155Z,28.57
2022-10-09T05:41:49.689Z,27.57
2022-10-09T05:44:17.312Z,20.20
2022-10-09T05:46:44.761Z,21.20
2022-10-09T05:49:12.229Z,22.23
2022-10-09T05:51:40.733Z,18.47
2022-10-09T05:54:08.443Z,19.60
2022-10-09T05:56:37.041Z,20.20
2022-10-09T05:59:07.321Z,18.33
2022-10-09T06:01:36.256Z,21.43
2022-10-09T06:04:04.689Z,18.87
2022-10-09T06:06:33.083Z,18.33
2022-10-09T06:09:00.590Z,20.27
2022-10-09T06:11:29.719Z,14.63
2022-10-09T06:13:57.168Z,16.20
2022-10-09T06:16:31.560Z,15.63
2022-10-09T06:18:59.417Z,17.50
2022-10-09T06:21:27.700Z,15.33
2022-10-09T06:23:56.566Z,13.50
2022-10-09T06:26:24.591Z,15.53
2022-10-09T06:28:52.367Z,13.43
2022-10-09T06:31:21.274Z,17.67
2022-10-09T06:33:49.827Z,17.07
2022-10-09T06:36:18.396Z,14.27
2022-10-09T06:38:46.459Z,11.73
2022-10-09T06:41:18.354Z,14.77
2022-10-09T06:43:50.431Z,14.90
2022-10-09T06:46:18.435Z,19.97
2022-10-09T06:48:45.998Z,18.33
2022-10-09T06:51:14.959Z,32.60
2022-10-09T06:53:43.933Z,33.23
2022-10-09T06:56:11.881Z,26.03
2022-10-09T06:58:39.996Z,28.67
2022-10-09T07:01:10.699Z,19.70
2022-10-09T07:03:39.748Z,23.83
2022-10-09T07:06:08.310Z,21.17
2022-10-09T07:08:36.637Z,19.87
2022-10-09T07:11:10.837Z,18.27
2022-10-09T07:13:38.504Z,27.73
2022-10-09T07:16:06.298Z,17.37
2022-10-09T07:18:35.660Z,17.87
2022-10-09T07:21:11.908Z,21.90
2022-10-09T07:23:39.391Z,22.80
2022-10-09T07:26:12.635Z,28.13
2022-10-09T07:28:40.590Z,26.97
2022-10-09T07:31:08.314Z,28.47
2022-10-09T07:33:35.859Z,31.83
2022-10-09T07:36:04.435Z,30.00
2022-10-09T07:38:32.185Z,32.67
2022-10-09T07:41:03.920Z,33.50
2022-10-09T07:43:31.425Z,31.97
2022-10-09T07:45:59.560Z,27.77
2022-10-09T07:48:27.477Z,26.33
2022-10-09T07:50:55.709Z,24.70
2022-10-09T07:53:23.608Z,21.97
2022-10-09T07:55:51.043Z,22.97
2022-10-09T07:58:18.628Z,15.63
2022-10-09T08:00:46.098Z,19.80
2022-10-09T08:03:13.554Z,20.07
2022-10-09T08:05:41.024Z,13.10
2022-10-09T08:08:08.534Z,13.83
2022-10-09T08:10:36.213Z,19.87
2022-10-09T08:13:04.299Z,16.10
2022-10-09T08:15:31.826Z,16.70
2022-10-09T08:17:59.299Z,16.50
2022-10-09T08:20:26.791Z,14.33
2022-10-09T08:22:54.226Z,15.33
2022-10-09T08:25:21.646Z,15.90
2022-10-09T08:27:49.085Z,17.00
2022-10-09T08:30:16.587Z,10.03
2022-10-09T08:32:44.086Z,12.77
2022-10-09T08:35:11.507Z,14.50
2022-10-09T08:37:39.146Z,11.83
2022-10-09T08:40:07.722Z,12.13
2022-10-09T08:42:35.174Z,12.47
2022-10-09T08:45:02.884Z,12.43
2022-10-09T08:47:30.566Z,11.60
2022-10-09T08:50:04.537Z,14.37
2022-10-09T08:52:50.167Z,11.00
2022-10-09T08:55:24.866Z,11.13
2022-10-09T08:57:54.090Z,16.07
2022-10-09T09:00:23.452Z,14.10
2022-10-09T09:03:09.628Z,9.57
2022-10-09T09:05:46.012Z,12.53
2022-10-09T09:08:13.535Z,12.50
2022-10-09T09:10:43.210Z,11.77
2022-10-09T09:13:29.150Z,11.00
2022-10-09T09:16:01.994Z,13.43
2022-10-09T11:09:50.205Z,8.17
2022-10-09T11:12:47.806Z,3.60
2022-10-09T11:15:27.615Z,4.37
2022-10-09T11:18:14.095Z,4.73
2022-10-09T11:20:56.946Z,6.20
2022-10-09T11:23:34.133Z,4.93
2022-10-09T11:26:13.907Z,7.17
2022-10-09T11:28:45.893Z,5.73
2022-10-09T11:31:15.498Z,5.00
2022-10-09T11:33:46.083Z,4.70
2022-10-09T11:36:17.342Z,2.73
2022-10-09T11:38:46.729Z,5.60
2022-10-09T11:41:14.408Z,5.63
2022-10-09T11:43:46.590Z,3.87
2022-10-09T11:46:33.072Z,4.00
2022-10-09T11:49:00.509Z,3.27
2022-10-09T11:51:35.127Z,3.33
2022-10-09T11:54:04.077Z,5.43
2022-10-09T11:56:32.318Z,3.83
2022-10-09T11:59:04.333Z,2.07
2022-10-09T12:01:42.027Z,4.07
2022-10-09T12:04:32.367Z,7.07
2022-10-09T12:07:08.992Z,7.47
2022-10-09T12:09:39.014Z,4.23
2022-10-09T12:12:08.495Z,6.23
2022-10-09T12:14:38.508Z,4.40
2022-10-09T12:17:18.474Z,5.37
2022-10-09T12:19:46.092Z,8.90
2022-10-09T12:22:13.699Z,3.13
2022-10-09T12:24:46.142Z,4.80
2022-10-09T12:27:19.102Z,7.93
2022-10-09T12:29:48.623Z,6.33
2022-10-09T12:32:29.053Z,2.73
2022-10-09T12:34:57.141Z,5.67
2022-10-09T12:38:00.387Z,2.93
2022-10-09T12:40:29.939Z,4.20
2022-10-09T12:42:58.323Z,5.30
2022-10-09T12:45:27.234Z,5.10
2022-10-09T12:47:55.008Z,3.30
2022-10-09T12:50:24.776Z,3.60
2022-10-09T12:52:53.718Z,4.20
2022-10-09T12:55:34.680Z,2.83
2022-10-09T12:58:08.379Z,4.03
2022-10-09T13:00:36.427Z,3.80
2022-10-09T13:03:03.893Z,2.53
2022-10-09T13:05:41.663Z,2.97
2022-10-09T13:08:21.673Z,3.33
2022-10-09T13:10:49.180Z,2.43
2022-10-09T13:13:20.355Z,4.37
2022-10-09T13:15:58.403Z,3.27
2022-10-09T13:18:25.844Z,3.47
2022-10-09T13:21:05.538Z,2.83
2022-10-09T13:23:34.046Z,2.80
2022-10-09T13:26:03.600Z,3.37
2022-10-09T13:28:32.225Z,5.57
2022-10-09T13:31:07.705Z,2.97
2022-10-09T13:33:35.456Z,4.47
2022-10-09T13:36:02.949Z,2.57
2022-10-09T13:38:34.738Z,4.23
2022-10-09T13:41:02.614Z,2.17
2022-10-09T13:43:30.161Z,2.03
2022-10-09T13:45:58.296Z,4.37
2022-10-09T13:48:25.776Z,4.07
2022-10-09T13:50:53.317Z,3.20
2022-10-09T13:53:20.756Z,2.80
2022-10-09T13:55:48.504Z,1.10
2022-10-09T13:58:15.969Z,2.97
2022-10-09T14:00:45.059Z,3.27
2022-10-09T14:03:12.937Z,3.40
2022-10-09T14:05:40.640Z,1.53
2022-10-09T14:08:08.570Z,3.73
2022-10-09T14:10:36.174Z,1.80
2022-10-09T14:13:03.640Z,4.00
2022-10-09T14:15:31.230Z,1.90
2022-10-09T14:17:58.712Z,1.13
2022-10-09T14:20:26.198Z,3.03
2022-10-09T14:22:53.711Z,3.53
2022-10-09T14:25:21.228Z,2.30
2022-10-09T14:27:48.684Z,3.23
2022-10-09T14:30:16.309Z,2.20
2022-10-09T14:32:43.933Z,5.57
2022-10-09T14:35:11.666Z,2.60
2022-10-09T14:37:41.909Z,2.43
2022-10-09T14:40:10.832Z,2.97
2022-10-09T14:42:38.584Z,2.03
2022-10-09T14:45:06.528Z,4.43
2022-10-09T14:47:34.100Z,3.23
2022-10-09T14:50:02.041Z,2.03
2022-10-09T14:52:29.518Z,4.13
2022-10-09T14:54:57.143Z,2.50
2022-10-09T14:57:24.651Z,3.53
2022-10-09T14:59:52.180Z,2.37
2022-10-09T15:02:19.970Z,2.53
2022-10-09T15:04:47.511Z,1.43
2022-10-09T15:07:14.956Z,2.80
2022-10-09T15:09:42.423Z,2.30
2022-10-09T15:12:09.960Z,1.27
2022-10-09T15:14:37.479Z,2.80
2022-10-09T15:17:04.951Z,4.97
2022-10-09T15:19:32.510Z,1.40
2022-10-09T15:22:00.176Z,1.37
2022-10-09T15:24:27.656Z,2.03
2022-10-09T15:26:55.117Z,2.53
2022-10-09T15:29:22.633Z,2.70
2022-10-09T15:31:50.825Z,2.07
2022-10-09T15:34:19.101Z,1.30
2022-10-09T15:36:46.676Z,3.13
2022-10-09T15:39:14.425Z,2.27
2022-10-09T15:41:42.561Z,1.87
2022-10-09T15:44:17.582Z,2.37
2022-10-09T15:46:46.082Z,2.10
2022-10-09T15:49:13.590Z,5.20
2022-10-09T15:51:41.209Z,3.40
2022-10-09T15:54:08.794Z,3.67
2022-10-09T15:56:39.897Z,2.17
2022-10-09T15:59:07.902Z,2.20
2022-10-09T16:01:35.400Z,1.47
2022-10-09T16:04:02.959Z,2.77
2022-10-09T16:06:30.392Z,2.57
2022-10-09T16:08:58.354Z,1.60
2022-10-09T16:11:26.551Z,4.67
2022-10-09T16:13:54.604Z,4.23
2022-10-09T16:16:23.731Z,2.70
2022-10-09T16:18:51.563Z,3.43
2022-10-09T16:21:20.586Z,4.20
2022-10-09T16:23:48.323Z,8.50
2022-10-09T16:26:17.359Z,4.70
2022-10-09T16:28:45.476Z,4.47
2022-10-09T16:31:23.181Z,3.60
2022-10-09T16:33:51.089Z,6.87
2022-10-09T16:36:18.700Z,3.90
2022-10-09T16:38:49.543Z,2.17
2022-10-09T16:41:18.561Z,3.23
2022-10-09T16:43:47.182Z,3.27
2022-10-09T16:46:17.787Z,6.50
2022-10-09T16:48:45.290Z,3.57
2022-10-09T16:51:13.984Z,2.50
2022-10-09T16:53:41.821Z,4.37
2022-10-09T16:56:13.754Z,6.13
2022-10-09T16:58:42.285Z,2.73
2022-10-09T17:01:10.522Z,3.90
2022-10-09T17:03:41.596Z,5.83
2022-10-09T17:06:10.193Z,4.93
2022-10-09T17:08:37.958Z,4.80
2022-10-09T17:11:08.922Z,3.33
2022-10-09T17:13:36.962Z,4.63
2022-10-09T17:16:17.125Z,3.17
2022-10-09T17:18:49.240Z,4.60
2022-10-09T17:21:19.326Z,6.07
2022-10-09T17:23:47.618Z,5.33
2022-10-09T17:26:17.294Z,4.27
2022-10-09T17:28:45.344Z,6.60
2022-10-09T17:31:14.487Z,3.73
2022-10-09T17:33:42.620Z,5.63
2022-10-09T17:36:10.296Z,3.47
2022-10-09T17:38:38.077Z,4.27
2022-10-09T17:41:06.251Z,3.57
2022-10-09T17:43:33.830Z,3.70
2022-10-09T17:46:01.589Z,4.43
2022-10-09T17:48:32.971Z,2.67
2022-10-09T17:51:01.322Z,5.00
2022-10-09T17:53:28.887Z,6.47
2022-10-09T17:55:57.403Z,7.30
2022-10-09T17:58:27.555Z,4.47
2022-10-09T18:00:55.379Z,4.87
2022-10-09T18:03:22.931Z,6.30
2022-10-09T18:05:51.620Z,3.53
2022-10-09T18:08:21.587Z,4.10
2022-10-09T18:10:57.819Z,5.03
2022-10-09T18:13:25.708Z,5.33
2022-10-09T18:15:53.398Z,4.50
2022-10-09T18:18:21.032Z,7.13
2022-10-09T18:20:48.780Z,5.90
2022-10-09T18:23:22.553Z,4.53
2022-10-09T18:25:50.542Z,6.47
2022-10-09T18:28:18.400Z,3.30
2022-10-09T18:30:46.294Z,5.37
2022-10-09T18:33:14.229Z,4.97
2022-10-09T18:35:42.053Z,4.03
2022-10-09T18:38:10.458Z,4.10
2022-10-09T18:40:45.792Z,7.70
2022-10-09T18:43:14.476Z,5.57
2022-10-09T18:45:44.561Z,5.83
2022-10-09T18:48:12.625Z,10.47
2022-10-09T18:50:40.540Z,9.20
2022-10-09T18:53:08.191Z,5.50
2022-10-09T18:55:36.045Z,7.20
2022-10-09T18:58:03.856Z,7.93
2022-10-09T19:00:31.804Z,10.00
2022-10-09T19:02:59.404Z,12.40
2022-10-09T19:05:27.091Z,13.03
2022-10-09T19:07:54.542Z,15.73
2022-10-09T19:10:22.326Z,13.77
2022-10-09T19:12:49.900Z,9.93
2022-10-09T19:15:17.474Z,8.70
2022-10-09T19:17:45.001Z,6.07
2022-10-09T19:20:12.700Z,8.67
2022-10-09T19:22:40.240Z,4.50
2022-10-09T19:25:08.129Z,4.57
2022-10-09T19:27:35.712Z,5.33
2022-10-09T19:30:04.136Z,7.33
2022-10-09T19:32:31.825Z,4.20
2022-10-09T19:34:59.406Z,4.73
2022-10-09T19:37:29.661Z,3.67
2022-10-09T19:39:57.923Z,5.17
2022-10-09T19:42:25.456Z,3.83
2022-10-09T19:44:52.967Z,4.17
2022-10-09T19:47:20.596Z,3.00
2022-10-09T19:49:48.241Z,4.67
2022-10-09T19:52:15.780Z,4.43
2022-10-09T19:54:43.355Z,2.90
2022-10-09T19:57:10.926Z,3.80
2022-10-09T19:59:38.585Z,3.17
2022-10-09T20:02:06.299Z,3.40
2022-10-09T20:04:33.911Z,4.43
2022-10-09T20:07:01.429Z,7.07
2022-10-09T20:09:28.961Z,6.47
2022-10-09T20:11:56.465Z,5.07
2022-10-09T20:14:23.965Z,5.03
2022-10-09T20:16:51.481Z,3.23
2022-10-09T20:19:19.076Z,4.83
2022-10-09T20:21:46.917Z,4.07
2022-10-09T20:24:14.511Z,3.37
2022-10-09T20:26:43.321Z,4.87
2022-10-09T20:29:11.276Z,6.10
2022-10-09T20:31:39.063Z,5.70
2022-10-09T20:34:06.571Z,5.30
2022-10-09T20:36:35.126Z,5.47
2022-10-09T20:39:13.244Z,5.23
2022-10-09T20:41:41.368Z,7.43
2022-10-09T20:44:09.257Z,7.60
2022-10-09T20:46:37.622Z,5.77
2022-10-09T20:49:06.134Z,6.63
2022-10-09T20:51:37.227Z,4.43
2022-10-09T20:54:08.438Z,6.57
2022-10-09T20:56:36.376Z,4.63
2022-10-09T20:59:04.663Z,5.40
2022-10-09T21:01:32.256Z,3.50
2022-10-09T21:03:59.835Z,4.23
2022-10-09T21:06:27.466Z,5.00
2022-10-09T21:08:55.365Z,5.50
2022-10-09T21:11:23.631Z,6.37
2022-10-09T21:13:51.688Z,5.30
2022-10-09T21:16:20.643Z,4.83
2022-10-09T21:18:48.487Z,5.97
2022-10-09T21:21:17.026Z,7.83
2022-10-09T21:23:45.433Z,6.63
2022-10-09T21:26:13.739Z,5.43
2022-10-09T21:28:41.369Z,7.07
2022-10-09T21:31:13.206Z,6.47
2022-10-09T21:33:40.805Z,7.37
2022-10-09T21:36:12.628Z,6.10
2022-10-09T21:38:42.258Z,7.77
2022-10-09T21:41:09.853Z,4.20
2022-10-09T21:43:37.443Z,7.87
2022-10-09T21:46:05.151Z,6.23
2022-10-09T21:48:32.651Z,6.50
2022-10-09T21:51:00.175Z,4.23
2022-10-09T21:53:27.768Z,5.47
2022-10-09T21:55:55.222Z,6.03
2022-10-09T21:58:22.766Z,6.10
2022-10-09T22:00:57.348Z,6.73
2022-10-09T22:03:26.091Z,4.53
2022-10-09T22:05:53.573Z,3.67
2022-10-09T22:08:21.210Z,3.67
2022-10-09T22:10:48.967Z,5.57
2022-10-09T22:13:17.391Z,5.87
2022-10-09T22:15:50.178Z,4.60
2022-10-09T22:18:18.754Z,5.37
2022-10-09T22:20:47.709Z,5.20
2022-10-09T22:23:15.963Z,5.93
2022-10-09T22:25:43.490Z,6.13
2022-10-09T22:28:11.070Z,6.67
2022-10-09T22:30:38.630Z,5.37
2022-10-09T22:33:06.098Z,5.47
2022-10-09T22:35:33.558Z,4.50
2022-10-09T22:38:01.059Z,6.33
2022-10-09T22:40:28.588Z,6.00
2022-10-09T22:42:56.080Z,5.43
2022-10-09T22:45:23.533Z,7.93
2022-10-09T22:47:51.055Z,6.13
2022-10-09T22:50:18.552Z,4.50
2022-10-09T22:52:46.116Z,6.00
2022-10-09T22:55:13.611Z,6.83
2022-10-09T22:57:41.142Z,5.73
2022-10-09T23:00:08.847Z,5.67
2022-10-09T23:02:36.381Z,5.50
2022-10-09T23:05:03.953Z,6.60
2022-10-09T23:07:31.537Z,5.00
2022-10-09T23:09:59.085Z,7.47
2022-10-09T23:12:26.641Z,4.60
2022-10-09T23:14:54.146Z,5.03
2022-10-09T23:17:21.829Z,6.30
2022-10-09T23:19:49.320Z,7.07
2022-10-09T23:22:17.022Z,5.13
2022-10-09T23:24:44.628Z,5.70
2022-10-09T23:27:12.135Z,4.83
2022-10-09T23:29:39.655Z,3.97
2022-10-09T23:32:07.190Z,4.37
2022-10-09T23:34:34.693Z,3.93
2022-10-09T23:37:02.217Z,7.87
2022-10-09T23:39:30.866Z,8.27
2022-10-09T23:41:58.420Z,5.43
2022-10-09T23:44:25.859Z,7.50
2022-10-09T23:46:53.356Z,9.50
2022-10-09T23:49:20.841Z,6.03
2022-10-09T23:51:48.465Z,5.03
2022-10-09T23:54:16.832Z,4.80
2022-10-09T23:56:44.498Z,4.30
2022-10-09T23:59:12.334Z,5.00
